VISIB

Not for real navigation. The accuracy of this data is not assured See disclaimer for more information



ICAO NAME COUNTRY WIND Kt GUST Kt VIS m TEMP/DEW C BARO METAR
SCGE 0 0 100 5/5 30.21 SCGE 191300Z 00000KT 0100 FG VV000 05/05 Q1023
CYBX Blanc Sablon, Que. Canada 8 0 200 14/14 29.99 CYBX 191300Z 24008KT 0.125SM -DZ FG VV001 14/14 A2999 RMK FG8 SLP158
CYQZ Quesnel Airport Canada 2 0 200 10/10 29.88 CYQZ 191300Z AUTO VRB02KT 0.125SM FG VV002 10/10 A2988 RMK SLP126
K1HW 7 0 200 17/17 30.01 K1HW 191258Z AUTO 18007KT 0.125SM FG VV002 17/17 A3001 RMK AO2 SLP125 T01670167 $
MMTO Toluca / Jose Maria Mexico 5 0 200 9/8 30.36 MMTO 191246Z 33005KT 0.125SM FG R15/800FTD VV001 09/08 A3036 RMK 8////

Show more